createdAt,value
2022-10-04T00:00:18.296Z,0.00
2022-10-04T00:01:18.652Z,0.00
2022-10-04T00:02:18.348Z,0.00
2022-10-04T00:03:18.575Z,0.00
2022-10-04T00:04:18.212Z,0.00
2022-10-04T00:05:18.199Z,0.00
2022-10-04T00:06:18.172Z,0.00
2022-10-04T00:07:18.146Z,0.00
2022-10-04T00:08:18.126Z,0.00
2022-10-04T00:09:18.103Z,0.00
2022-10-04T00:10:18.082Z,0.00
2022-10-04T00:11:18.059Z,0.00
2022-10-04T00:12:18.045Z,0.00
2022-10-04T00:13:18.017Z,0.00
2022-10-04T00:14:17.997Z,0.00
2022-10-04T00:15:17.973Z,0.00
2022-10-04T00:16:17.984Z,0.00
2022-10-04T00:17:17.951Z,0.00
2022-10-04T00:18:17.913Z,0.00
2022-10-04T00:19:17.888Z,0.00
2022-10-04T00:20:17.868Z,0.00
2022-10-04T00:21:17.845Z,0.00
2022-10-04T00:22:17.824Z,0.00
2022-10-04T00:23:17.803Z,0.00
2022-10-04T00:24:17.782Z,0.00
2022-10-04T00:25:17.762Z,0.00
2022-10-04T00:26:17.741Z,0.00
2022-10-04T00:27:17.716Z,0.00
2022-10-04T00:28:17.749Z,0.00
2022-10-04T00:29:17.674Z,0.00
2022-10-04T00:30:17.653Z,0.00
2022-10-04T00:31:17.687Z,0.00
2022-10-04T00:32:17.609Z,0.00
2022-10-04T00:33:17.605Z,0.00
2022-10-04T00:34:17.568Z,0.00
2022-10-04T00:35:17.550Z,0.00
2022-10-04T00:36:17.523Z,0.00
2022-10-04T00:37:17.501Z,0.00
2022-10-04T00:38:17.485Z,0.00
2022-10-04T00:39:17.459Z,0.00
2022-10-04T00:40:17.435Z,0.00
2022-10-04T00:41:17.416Z,0.00
2022-10-04T00:42:17.395Z,0.00
2022-10-04T00:43:17.372Z,0.00
2022-10-04T00:44:17.349Z,0.00
2022-10-04T00:45:17.329Z,0.00
2022-10-04T00:46:17.395Z,0.00
2022-10-04T00:47:17.288Z,0.00
2022-10-04T00:48:17.264Z,0.00
2022-10-04T00:49:17.263Z,0.00
2022-10-04T00:50:17.222Z,0.00
2022-10-04T00:51:17.217Z,0.00
2022-10-04T00:52:17.182Z,0.00
2022-10-04T00:53:17.156Z,0.00
2022-10-04T00:54:17.135Z,0.00
2022-10-04T00:55:17.113Z,0.00
2022-10-04T00:56:17.092Z,0.00
2022-10-04T00:57:17.071Z,0.00
2022-10-04T00:58:17.050Z,0.00
2022-10-04T00:59:17.029Z,0.00
2022-10-04T01:00:17.007Z,0.00
2022-10-04T01:01:17.048Z,0.00
2022-10-04T01:02:17.026Z,0.00
2022-10-04T01:03:16.942Z,0.00
2022-10-04T01:04:16.919Z,0.00
2022-10-04T01:05:17.027Z,0.00
2022-10-04T01:06:16.876Z,0.00
2022-10-04T01:07:16.857Z,0.00
2022-10-04T01:08:16.836Z,0.00
2022-10-04T01:09:16.814Z,0.00
2022-10-04T01:10:16.791Z,0.00
2022-10-04T01:11:16.770Z,0.00
2022-10-04T01:12:16.748Z,0.00
2022-10-04T01:13:16.728Z,0.00
2022-10-04T01:14:16.704Z,0.00
2022-10-04T01:15:16.684Z,0.00
2022-10-04T01:16:16.725Z,0.00
2022-10-04T01:17:16.641Z,0.00
2022-10-04T01:18:16.618Z,0.00
2022-10-04T01:19:16.597Z,0.00
2022-10-04T01:20:16.572Z,0.00
2022-10-04T01:21:16.572Z,0.00
2022-10-04T01:22:16.534Z,0.00
2022-10-04T01:23:16.510Z,0.00
2022-10-04T01:24:16.488Z,0.00
2022-10-04T01:25:16.467Z,0.00
2022-10-04T01:26:16.448Z,0.00
2022-10-04T01:27:16.425Z,0.00
2022-10-04T01:28:16.449Z,0.00
2022-10-04T01:29:16.390Z,0.00
2022-10-04T01:30:16.359Z,0.00
2022-10-04T01:31:16.368Z,0.00
2022-10-04T01:32:16.317Z,0.00
2022-10-04T01:33:16.295Z,0.00
2022-10-04T01:34:16.272Z,0.00
2022-10-04T01:35:16.252Z,0.00
2022-10-04T01:36:16.231Z,0.00
2022-10-04T01:37:16.228Z,0.00
2022-10-04T01:38:16.187Z,0.00
2022-10-04T01:39:16.166Z,0.00
2022-10-04T01:40:16.143Z,0.00
2022-10-04T01:41:16.122Z,0.00
2022-10-04T01:42:16.100Z,0.00
2022-10-04T01:43:16.076Z,0.00
2022-10-04T01:44:16.055Z,0.00
2022-10-04T01:45:16.066Z,0.00
2022-10-04T01:46:16.069Z,0.00
2022-10-04T01:47:15.995Z,0.00
2022-10-04T01:48:15.970Z,0.00
2022-10-04T01:49:15.947Z,0.00
2022-10-04T01:50:16.161Z,0.00
2022-10-04T01:51:15.903Z,0.00
2022-10-04T01:52:15.882Z,0.00
2022-10-04T01:53:15.881Z,0.00
2022-10-04T01:54:15.840Z,0.00
2022-10-04T01:55:15.819Z,0.00
2022-10-04T01:56:15.796Z,0.00
2022-10-04T01:57:15.775Z,0.00
2022-10-04T01:58:15.755Z,0.00
2022-10-04T01:59:15.731Z,0.00
2022-10-04T02:00:15.709Z,0.00
2022-10-04T02:01:15.725Z,0.00
2022-10-04T02:02:15.668Z,0.00
2022-10-04T02:03:15.646Z,0.00
2022-10-04T02:04:19.798Z,0.00
2022-10-04T02:05:15.603Z,0.00
2022-10-04T02:06:15.578Z,0.00
2022-10-04T02:07:15.562Z,0.00
2022-10-04T02:08:15.535Z,0.00
2022-10-04T02:09:15.533Z,0.00
2022-10-04T02:10:15.492Z,0.00
2022-10-04T02:11:15.476Z,0.00
2022-10-04T02:12:15.450Z,0.00
2022-10-04T02:13:15.429Z,0.00
2022-10-04T02:14:15.404Z,0.00
2022-10-04T02:15:15.384Z,0.00
2022-10-04T02:16:15.391Z,0.00
2022-10-04T02:17:15.344Z,0.00
2022-10-04T02:18:15.317Z,0.00
2022-10-04T02:19:15.303Z,0.00
2022-10-04T02:20:15.274Z,0.00
2022-10-04T02:21:15.260Z,0.00
2022-10-04T02:22:15.234Z,0.00
2022-10-04T02:23:15.211Z,0.00
2022-10-04T02:24:15.189Z,0.00
2022-10-04T02:25:15.188Z,0.00
2022-10-04T02:26:15.146Z,0.00
2022-10-04T02:27:15.125Z,0.00
2022-10-04T02:28:15.133Z,0.00
2022-10-04T02:29:15.081Z,0.00
2022-10-04T02:30:15.058Z,0.00
2022-10-04T02:31:15.098Z,0.00
2022-10-04T02:32:15.014Z,0.00
2022-10-04T02:33:14.997Z,0.00
2022-10-04T02:34:14.973Z,0.00
2022-10-04T02:35:14.951Z,0.00
2022-10-04T02:36:14.928Z,0.00
2022-10-04T02:37:14.910Z,0.00
2022-10-04T02:38:14.883Z,0.00
2022-10-04T02:39:14.864Z,0.00
2022-10-04T02:40:14.840Z,0.00
2022-10-04T02:41:14.838Z,0.00
2022-10-04T02:42:14.797Z,0.00
2022-10-04T02:43:14.776Z,0.00
2022-10-04T02:44:14.756Z,0.00
2022-10-04T02:45:14.734Z,0.00
2022-10-04T02:46:14.776Z,0.00
2022-10-04T02:47:14.691Z,0.00
2022-10-04T02:48:14.667Z,0.00
2022-10-04T02:49:14.647Z,0.00
2022-10-04T02:50:14.625Z,0.00
2022-10-04T02:51:14.602Z,0.00
2022-10-04T02:52:14.582Z,0.00
2022-10-04T02:53:14.560Z,0.00
2022-10-04T02:54:14.539Z,0.00
2022-10-04T02:55:14.516Z,0.00
2022-10-04T02:56:14.496Z,0.00
2022-10-04T02:57:14.492Z,0.00
2022-10-04T02:58:14.457Z,0.00
2022-10-04T02:59:14.429Z,0.00
2022-10-04T03:00:14.409Z,0.00
2022-10-04T03:01:14.438Z,0.00
2022-10-04T03:02:14.479Z,0.00
2022-10-04T03:03:14.341Z,0.00
2022-10-04T03:04:14.320Z,0.00
2022-10-04T03:05:14.299Z,0.00
2022-10-04T03:06:14.278Z,0.00
2022-10-04T03:07:14.256Z,0.00
2022-10-04T03:08:14.234Z,0.00
2022-10-04T03:09:14.215Z,0.00
2022-10-04T03:10:14.190Z,0.00
2022-10-04T03:11:14.171Z,0.00
2022-10-04T03:12:14.149Z,0.00
2022-10-04T03:13:14.144Z,0.00
2022-10-04T03:14:14.105Z,0.00
2022-10-04T03:15:14.083Z,0.00
2022-10-04T03:16:14.120Z,0.00
2022-10-04T03:17:14.042Z,0.00
2022-10-04T03:18:14.020Z,0.00
2022-10-04T03:19:13.995Z,0.00
2022-10-04T03:20:13.974Z,0.00
2022-10-04T03:21:13.952Z,0.00
2022-10-04T03:22:13.929Z,0.00
2022-10-04T03:23:13.910Z,0.00
2022-10-04T03:24:13.884Z,0.00
2022-10-04T03:25:13.868Z,0.00
2022-10-04T03:26:13.845Z,0.00
2022-10-04T03:27:13.825Z,0.00
2022-10-04T03:28:13.872Z,0.00
2022-10-04T03:29:13.795Z,0.00
2022-10-04T03:30:13.760Z,0.00
2022-10-04T03:31:13.842Z,0.00
2022-10-04T03:32:13.710Z,0.00
2022-10-04T03:33:13.693Z,0.00
2022-10-04T03:34:13.669Z,0.00
2022-10-04T03:35:13.647Z,0.00
2022-10-04T03:36:13.627Z,0.00
2022-10-04T03:37:13.606Z,0.00
2022-10-04T03:38:13.579Z,0.00
2022-10-04T03:39:13.559Z,0.00
2022-10-04T03:40:13.540Z,0.00
2022-10-04T03:41:13.519Z,0.00
2022-10-04T03:42:13.497Z,0.00
2022-10-04T03:43:13.473Z,0.00
2022-10-04T03:44:13.452Z,0.00
2022-10-04T03:45:13.453Z,0.00
2022-10-04T03:46:13.469Z,0.00
2022-10-04T03:47:13.386Z,0.00
2022-10-04T03:48:13.363Z,0.00
2022-10-04T03:49:13.343Z,0.00
2022-10-04T03:50:13.321Z,0.00
2022-10-04T03:51:13.299Z,0.00
2022-10-04T03:52:13.275Z,0.00
2022-10-04T03:53:13.256Z,0.00
2022-10-04T03:54:13.236Z,0.00
2022-10-04T03:55:13.212Z,0.00
2022-10-04T03:56:13.190Z,0.00
2022-10-04T03:57:13.174Z,0.00
2022-10-04T03:58:13.148Z,0.00
2022-10-04T03:59:13.124Z,0.00
2022-10-04T04:00:13.105Z,0.00
2022-10-04T04:01:13.177Z,0.00
2022-10-04T04:02:13.138Z,0.00
2022-10-04T04:03:13.037Z,0.00
2022-10-04T04:04:13.013Z,0.00
2022-10-04T04:05:12.993Z,0.00
2022-10-04T04:06:12.973Z,0.00
2022-10-04T04:07:12.948Z,0.00
2022-10-04T04:08:12.930Z,0.00
2022-10-04T04:09:12.907Z,0.00
2022-10-04T04:10:16.658Z,0.00
2022-10-04T04:11:12.864Z,0.00
2022-10-04T04:12:12.839Z,0.00
2022-10-04T04:13:12.821Z,0.00
2022-10-04T04:14:12.804Z,0.00
2022-10-04T04:15:12.777Z,0.00
2022-10-04T04:16:12.874Z,0.00
2022-10-04T04:17:12.778Z,0.00
2022-10-04T04:18:12.712Z,0.00
2022-10-04T04:19:12.689Z,0.00
2022-10-04T04:20:12.665Z,0.00
2022-10-04T04:21:12.644Z,0.00
2022-10-04T04:22:12.630Z,0.00
2022-10-04T04:23:12.599Z,0.00
2022-10-04T04:24:12.576Z,0.00
2022-10-04T04:25:12.565Z,0.00
2022-10-04T04:26:12.532Z,0.00
2022-10-04T04:27:12.511Z,0.00
2022-10-04T04:28:12.538Z,0.00
2022-10-04T04:29:12.468Z,0.00
2022-10-04T04:30:12.443Z,0.00
2022-10-04T04:31:12.465Z,0.00
2022-10-04T04:32:12.459Z,0.00
2022-10-04T04:33:12.397Z,0.00
2022-10-04T04:34:12.356Z,0.00
2022-10-04T04:35:12.335Z,0.00
2022-10-04T04:36:12.314Z,0.00
2022-10-04T04:37:12.291Z,0.00
2022-10-04T04:38:12.270Z,0.00
2022-10-04T04:39:12.248Z,0.00
2022-10-04T04:40:12.225Z,0.00
2022-10-04T04:41:12.205Z,0.00
2022-10-04T04:42:12.181Z,0.00
2022-10-04T04:43:12.160Z,0.00
2022-10-04T04:44:12.140Z,0.00
2022-10-04T04:45:12.118Z,0.00
2022-10-04T04:46:28.282Z,0.00
2022-10-04T04:47:16.301Z,0.00
2022-10-04T04:48:12.054Z,0.00
2022-10-04T04:49:12.048Z,0.00
2022-10-04T04:50:12.008Z,0.00
2022-10-04T04:51:11.982Z,0.00
2022-10-04T04:52:11.964Z,0.00
2022-10-04T04:53:11.941Z,0.00
2022-10-04T04:54:11.920Z,0.00
2022-10-04T04:55:11.901Z,0.00
2022-10-04T04:56:15.180Z,0.00
2022-10-04T04:57:11.853Z,0.00
2022-10-04T04:58:11.833Z,0.00
2022-10-04T04:59:11.818Z,0.00
2022-10-04T05:00:11.792Z,0.00
2022-10-04T05:01:11.779Z,0.00
2022-10-04T05:02:11.782Z,0.00
2022-10-04T05:03:11.723Z,0.00
2022-10-04T05:04:11.702Z,0.00
2022-10-04T05:05:11.696Z,0.00
2022-10-04T05:06:11.660Z,0.00
2022-10-04T05:07:11.635Z,0.00
2022-10-04T05:08:11.612Z,0.00
2022-10-04T05:09:11.591Z,0.00
2022-10-04T05:10:11.569Z,0.00
2022-10-04T05:11:11.544Z,0.00
2022-10-04T05:12:11.526Z,0.00
2022-10-04T05:13:11.503Z,0.00
2022-10-04T05:14:11.483Z,0.00
2022-10-04T05:15:11.458Z,0.00
2022-10-04T05:16:11.487Z,0.00
2022-10-04T05:17:11.415Z,0.00
2022-10-04T05:18:11.392Z,0.00
2022-10-04T05:19:11.368Z,0.00
2022-10-04T05:20:11.351Z,0.00
2022-10-04T05:21:11.345Z,0.00
2022-10-04T05:22:11.312Z,0.00
2022-10-04T05:23:11.282Z,4.00
2022-10-04T05:24:11.262Z,4.00
2022-10-04T05:25:11.240Z,0.00
2022-10-04T05:26:11.217Z,0.00
2022-10-04T05:27:11.192Z,4.00
2022-10-04T05:28:11.218Z,0.00
2022-10-04T05:29:11.151Z,4.00
2022-10-04T05:30:11.131Z,4.00
2022-10-04T05:31:11.106Z,4.00
2022-10-04T05:32:11.209Z,4.00
2022-10-04T05:33:11.058Z,4.00
2022-10-04T05:34:11.038Z,4.00
2022-10-04T05:35:11.015Z,8.00
2022-10-04T05:36:10.996Z,8.00
2022-10-04T05:37:10.990Z,8.00
2022-10-04T05:38:10.951Z,8.00
2022-10-04T05:39:10.926Z,8.00
2022-10-04T05:40:10.911Z,8.00
2022-10-04T05:41:10.883Z,12.00
2022-10-04T05:42:10.864Z,12.00
2022-10-04T05:43:10.836Z,16.00
2022-10-04T05:44:10.818Z,12.00
2022-10-04T05:45:10.796Z,16.00
2022-10-04T05:46:10.792Z,16.00
2022-10-04T05:47:10.748Z,24.00
2022-10-04T05:48:10.737Z,20.00
2022-10-04T05:49:11.920Z,24.00
2022-10-04T05:50:10.687Z,24.00
2022-10-04T05:51:10.661Z,28.00
2022-10-04T05:52:10.639Z,32.00
2022-10-04T05:53:10.633Z,32.00
2022-10-04T05:54:10.600Z,32.00
2022-10-04T05:55:10.570Z,32.00
2022-10-04T05:56:10.549Z,36.00
2022-10-04T05:57:10.553Z,36.00
2022-10-04T05:58:10.508Z,40.00
2022-10-04T05:59:10.482Z,40.00
2022-10-04T06:00:10.462Z,44.00
2022-10-04T06:01:10.631Z,48.00
2022-10-04T06:02:10.480Z,48.00
2022-10-04T06:03:10.391Z,48.00
2022-10-04T06:04:10.376Z,52.00
2022-10-04T06:05:10.349Z,52.00
2022-10-04T06:06:10.328Z,56.00
2022-10-04T06:07:10.305Z,60.00
2022-10-04T06:08:10.283Z,60.00
2022-10-04T06:09:10.276Z,68.00
2022-10-04T06:10:10.245Z,68.00
2022-10-04T06:11:10.212Z,72.00
2022-10-04T06:12:10.204Z,72.00
2022-10-04T06:13:10.169Z,72.00
2022-10-04T06:14:10.147Z,76.00
2022-10-04T06:15:10.122Z,76.00
2022-10-04T06:16:10.102Z,80.00
2022-10-04T06:17:10.079Z,80.00
2022-10-04T06:18:10.123Z,84.00
2022-10-04T06:19:10.035Z,88.00
2022-10-04T06:20:10.014Z,88.00
2022-10-04T06:21:09.990Z,96.00
2022-10-04T06:22:09.970Z,100.00
2022-10-04T06:23:09.945Z,104.00
2022-10-04T06:24:09.924Z,108.00
2022-10-04T06:25:09.924Z,108.00
2022-10-04T06:26:09.878Z,116.00
2022-10-04T06:27:09.880Z,120.00
2022-10-04T06:28:09.862Z,120.00
2022-10-04T06:29:09.811Z,120.00
2022-10-04T06:30:09.792Z,120.00
2022-10-04T06:31:09.847Z,120.00
2022-10-04T06:32:09.747Z,120.00
2022-10-04T06:33:09.722Z,124.00
2022-10-04T06:34:09.703Z,128.00
2022-10-04T06:35:09.680Z,128.00
2022-10-04T06:36:09.658Z,132.00
2022-10-04T06:37:09.635Z,136.00
2022-10-04T06:38:09.615Z,136.00
2022-10-04T06:39:09.589Z,136.00
2022-10-04T06:40:09.649Z,140.00
2022-10-04T06:41:09.568Z,144.00
2022-10-04T06:42:09.528Z,144.00
2022-10-04T06:43:09.499Z,148.00
2022-10-04T06:44:09.480Z,152.00
2022-10-04T06:45:09.460Z,152.00
2022-10-04T06:46:09.490Z,156.00
2022-10-04T06:47:09.411Z,156.00
2022-10-04T06:48:09.392Z,152.00
2022-10-04T06:49:09.365Z,156.00
2022-10-04T06:50:09.344Z,160.00
2022-10-04T06:51:09.321Z,172.00
2022-10-04T06:52:09.299Z,172.00
2022-10-04T06:53:09.277Z,168.00
2022-10-04T06:54:09.255Z,168.00
2022-10-04T06:55:09.232Z,164.00
2022-10-04T06:56:09.211Z,160.00
2022-10-04T06:57:09.310Z,168.00
2022-10-04T06:58:09.167Z,168.00
2022-10-04T06:59:09.291Z,172.00
2022-10-04T07:00:09.129Z,176.00
2022-10-04T07:01:09.149Z,172.00
2022-10-04T07:02:09.123Z,176.00
2022-10-04T07:03:09.061Z,180.00
2022-10-04T07:04:09.100Z,184.00
2022-10-04T07:05:09.621Z,180.00
2022-10-04T07:06:08.990Z,184.00
2022-10-04T07:07:08.962Z,188.00
2022-10-04T07:08:08.943Z,192.00
2022-10-04T07:09:08.922Z,188.00
2022-10-04T07:10:08.900Z,188.00
2022-10-04T07:11:12.192Z,188.00
2022-10-04T07:12:08.855Z,192.00
2022-10-04T07:13:08.849Z,200.00
2022-10-04T07:14:08.815Z,212.00
2022-10-04T07:15:08.785Z,224.00
2022-10-04T07:16:08.800Z,232.00
2022-10-04T07:17:08.746Z,240.00
2022-10-04T07:18:08.725Z,244.00
2022-10-04T07:19:08.702Z,248.00
2022-10-04T07:20:08.679Z,252.00
2022-10-04T07:21:08.654Z,252.00
2022-10-04T07:22:08.634Z,252.00
2022-10-04T07:23:08.617Z,252.00
2022-10-04T07:24:08.590Z,256.00
2022-10-04T07:25:08.567Z,252.00
2022-10-04T07:26:08.547Z,248.00
2022-10-04T07:27:08.526Z,228.00
2022-10-04T07:28:08.567Z,224.00
2022-10-04T07:29:08.610Z,228.00
2022-10-04T07:30:08.457Z,236.00
2022-10-04T07:31:08.517Z,240.00
2022-10-04T07:32:08.415Z,240.00
2022-10-04T07:33:08.391Z,236.00
2022-10-04T07:34:08.370Z,224.00
2022-10-04T07:35:08.349Z,216.00
2022-10-04T07:36:08.327Z,216.00
2022-10-04T07:37:08.305Z,228.00
2022-10-04T07:38:08.282Z,236.00
2022-10-04T07:39:08.257Z,232.00
2022-10-04T07:40:08.261Z,236.00
2022-10-04T07:41:08.217Z,220.00
2022-10-04T07:42:08.195Z,212.00
2022-10-04T07:43:08.174Z,204.00
2022-10-04T07:44:08.150Z,204.00
2022-10-04T07:45:08.145Z,200.00
2022-10-04T07:46:08.177Z,204.00
2022-10-04T07:47:08.085Z,208.00
2022-10-04T07:48:08.063Z,212.00
2022-10-04T07:49:08.041Z,216.00
2022-10-04T07:50:08.020Z,212.00
2022-10-04T07:51:07.997Z,212.00
2022-10-04T07:52:08.008Z,208.00
2022-10-04T07:53:09.673Z,200.00
2022-10-04T07:54:07.931Z,200.00
2022-10-04T07:55:07.910Z,200.00
2022-10-04T07:56:07.890Z,204.00
2022-10-04T07:57:07.865Z,200.00
2022-10-04T07:58:07.846Z,196.00
2022-10-04T07:59:07.821Z,200.00
2022-10-04T08:00:07.800Z,196.00
2022-10-04T08:01:07.796Z,196.00
2022-10-04T08:02:07.870Z,188.00
2022-10-04T08:03:07.822Z,192.00
2022-10-04T08:04:07.712Z,188.00
2022-10-04T08:05:07.689Z,188.00
2022-10-04T08:06:07.672Z,188.00
2022-10-04T08:07:07.648Z,196.00
2022-10-04T08:08:07.629Z,196.00
2022-10-04T08:09:07.603Z,200.00
2022-10-04T08:10:07.583Z,208.00
2022-10-04T08:11:07.560Z,212.00
2022-10-04T08:12:07.540Z,224.00
2022-10-04T08:13:07.515Z,228.00
2022-10-04T08:14:07.496Z,216.00
2022-10-04T08:15:07.472Z,220.00
2022-10-04T08:16:07.614Z,224.00
2022-10-04T08:17:09.837Z,236.00
2022-10-04T08:18:07.407Z,244.00
2022-10-04T08:19:07.389Z,248.00
2022-10-04T08:20:07.371Z,244.00
2022-10-04T08:21:07.340Z,248.00
2022-10-04T08:22:07.323Z,248.00
2022-10-04T08:23:07.299Z,248.00
2022-10-04T08:24:07.281Z,244.00
2022-10-04T08:25:07.262Z,248.00
2022-10-04T08:26:07.237Z,264.00
2022-10-04T08:27:07.211Z,272.00
2022-10-04T08:28:07.273Z,264.00
2022-10-04T08:29:07.169Z,256.00
2022-10-04T08:30:07.147Z,260.00
2022-10-04T08:31:07.208Z,244.00
2022-10-04T08:32:07.103Z,240.00
2022-10-04T08:33:07.105Z,240.00
2022-10-04T08:34:07.064Z,228.00
2022-10-04T08:35:07.037Z,236.00
2022-10-04T08:36:07.018Z,244.00
2022-10-04T08:37:06.995Z,248.00
2022-10-04T08:38:06.977Z,252.00
2022-10-04T08:39:06.954Z,248.00
2022-10-04T08:40:12.010Z,244.00
2022-10-04T08:41:06.908Z,244.00
2022-10-04T08:42:06.889Z,248.00
2022-10-04T08:43:06.863Z,252.00
2022-10-04T08:44:06.845Z,252.00
2022-10-04T08:45:06.826Z,256.00
2022-10-04T08:46:06.852Z,252.00
2022-10-04T08:47:06.780Z,252.00
2022-10-04T08:48:06.758Z,260.00
2022-10-04T08:49:06.754Z,256.00
2022-10-04T08:50:06.717Z,260.00
2022-10-04T08:51:06.694Z,268.00
2022-10-04T08:52:06.671Z,264.00
2022-10-04T08:53:10.824Z,268.00
2022-10-04T08:54:06.631Z,268.00
2022-10-04T08:55:06.607Z,272.00
2022-10-04T08:56:06.588Z,280.00
2022-10-04T08:57:06.564Z,272.00
2022-10-04T08:58:06.544Z,280.00
2022-10-04T08:59:06.526Z,284.00
2022-10-04T09:00:06.500Z,284.00
2022-10-04T09:01:06.533Z,284.00
2022-10-04T09:02:06.458Z,300.00
2022-10-04T09:03:06.512Z,364.00
2022-10-04T09:04:06.417Z,376.00
2022-10-04T09:05:06.475Z,432.00
2022-10-04T09:06:06.372Z,428.00
2022-10-04T09:07:06.350Z,456.00
2022-10-04T09:08:06.333Z,548.00
2022-10-04T09:09:06.307Z,588.00
2022-10-04T09:10:06.284Z,576.00
2022-10-04T09:11:06.265Z,432.00
2022-10-04T09:12:06.241Z,396.00
2022-10-04T09:13:06.223Z,360.00
2022-10-04T09:14:06.200Z,424.00
2022-10-04T09:15:06.181Z,436.00
2022-10-04T09:16:06.205Z,424.00
2022-10-04T09:17:06.135Z,424.00
2022-10-04T09:18:06.114Z,432.00
2022-10-04T09:19:06.092Z,448.00
2022-10-04T09:20:33.469Z,444.00
2022-10-04T09:21:06.069Z,360.00
2022-10-04T09:22:06.028Z,340.00
2022-10-04T09:23:06.638Z,296.00
2022-10-04T09:24:05.986Z,376.00
2022-10-04T09:25:05.966Z,384.00
2022-10-04T09:26:05.945Z,420.00
2022-10-04T09:27:05.922Z,416.00
2022-10-04T09:28:05.964Z,412.00
2022-10-04T09:29:05.887Z,400.00
2022-10-04T09:30:05.859Z,400.00
2022-10-04T09:31:05.894Z,416.00
2022-10-04T09:32:05.828Z,436.00
2022-10-04T09:33:05.798Z,464.00
2022-10-04T09:34:05.773Z,492.00
2022-10-04T09:35:05.756Z,512.00
2022-10-04T09:36:05.742Z,528.00
2022-10-04T09:37:05.809Z,552.00
2022-10-04T09:38:05.694Z,584.00
2022-10-04T09:39:28.929Z,624.00
2022-10-04T09:40:05.649Z,856.00
2022-10-04T09:41:05.637Z,2316.00
2022-10-04T09:42:05.626Z,3508.00
2022-10-04T09:43:05.591Z,3580.00
2022-10-04T09:44:05.565Z,3644.00
2022-10-04T09:45:05.545Z,3712.00
2022-10-04T09:46:05.587Z,3724.00
2022-10-04T09:47:05.502Z,3800.00
2022-10-04T09:48:05.478Z,3872.00
2022-10-04T09:49:05.462Z,3892.00
2022-10-04T09:50:05.440Z,3952.00
2022-10-04T09:51:05.421Z,3996.00
2022-10-04T09:52:05.399Z,4084.00
2022-10-04T09:53:05.396Z,4120.00
2022-10-04T09:54:05.359Z,4084.00
2022-10-04T09:55:05.340Z,4204.00
2022-10-04T09:56:05.317Z,4188.00
2022-10-04T09:57:05.298Z,4256.00
2022-10-04T09:58:05.278Z,4280.00
2022-10-04T09:59:05.257Z,4292.00
2022-10-04T10:00:05.249Z,4304.00
2022-10-04T10:01:05.219Z,4292.00
2022-10-04T10:02:05.284Z,4236.00
2022-10-04T10:03:05.234Z,4296.00
2022-10-04T10:04:05.159Z,4316.00
2022-10-04T10:05:05.139Z,4332.00
2022-10-04T10:06:05.120Z,4432.00
2022-10-04T10:07:05.100Z,4384.00
2022-10-04T10:08:05.085Z,4432.00
2022-10-04T10:09:05.083Z,4388.00
2022-10-04T10:10:05.043Z,4464.00
2022-10-04T10:11:05.025Z,4496.00
2022-10-04T10:12:05.003Z,4504.00
2022-10-04T10:13:04.986Z,4592.00
2022-10-04T10:14:04.966Z,4504.00
2022-10-04T10:15:04.949Z,4496.00
2022-10-04T10:16:05.000Z,4500.00
2022-10-04T10:17:04.917Z,4528.00
2022-10-04T10:18:04.890Z,4540.00
2022-10-04T10:19:04.875Z,4536.00
2022-10-04T10:20:04.853Z,4416.00
2022-10-04T10:21:04.836Z,4324.00
2022-10-04T10:22:04.820Z,4268.00
2022-10-04T10:23:04.797Z,4184.00
2022-10-04T10:24:04.780Z,4128.00
2022-10-04T10:25:04.788Z,4088.00
2022-10-04T10:26:04.743Z,4052.00
2022-10-04T10:27:04.725Z,4068.00
2022-10-04T10:28:04.768Z,4000.00
2022-10-04T10:29:04.691Z,4020.00
2022-10-04T10:30:04.669Z,4040.00
2022-10-04T10:31:04.678Z,4068.00
2022-10-04T10:32:04.631Z,4044.00
2022-10-04T10:33:04.615Z,4056.00
2022-10-04T10:34:04.595Z,4128.00
2022-10-04T10:35:04.577Z,4240.00
2022-10-04T10:36:04.559Z,4400.00
2022-10-04T10:37:04.543Z,4576.00
2022-10-04T10:38:04.987Z,5292.00
2022-10-04T10:39:04.508Z,10600.00
2022-10-04T10:40:04.486Z,25440.00
2022-10-04T10:41:04.485Z,41184.00
2022-10-04T10:42:04.451Z,52448.00
2022-10-04T10:43:04.433Z,57376.00
2022-10-04T10:44:04.416Z,56160.00
2022-10-04T10:45:04.397Z,55520.00
2022-10-04T10:46:04.448Z,54816.00
2022-10-04T10:47:04.360Z,54496.00
2022-10-04T10:48:04.341Z,55104.00
2022-10-04T10:49:04.325Z,55040.00
2022-10-04T10:50:04.309Z,52256.00
2022-10-04T10:51:04.290Z,54400.00
2022-10-04T10:52:04.270Z,52576.00
2022-10-04T10:53:04.253Z,51712.00
2022-10-04T10:54:04.233Z,52032.00
2022-10-04T10:55:04.218Z,42880.00
2022-10-04T10:56:04.199Z,29888.00
2022-10-04T10:57:04.207Z,10236.00
2022-10-04T10:58:04.165Z,1184.00
2022-10-04T10:59:04.148Z,648.00
2022-10-04T11:00:04.130Z,492.00
2022-10-04T11:01:04.113Z,456.00
2022-10-04T11:02:04.298Z,424.00
2022-10-04T11:03:13.145Z,428.00
2022-10-04T11:04:04.100Z,412.00
2022-10-04T11:05:04.054Z,424.00
2022-10-04T11:06:04.024Z,492.00
2022-10-04T11:07:04.006Z,404.00
2022-10-04T11:08:03.983Z,396.00
2022-10-04T11:09:03.975Z,384.00
2022-10-04T11:10:03.950Z,372.00
2022-10-04T11:11:03.939Z,392.00
2022-10-04T11:12:03.914Z,396.00
2022-10-04T11:13:03.922Z,376.00
2022-10-04T11:14:03.877Z,360.00
2022-10-04T11:15:03.859Z,364.00
2022-10-04T11:16:03.951Z,356.00
2022-10-04T11:17:03.828Z,344.00
2022-10-04T11:18:03.805Z,352.00
2022-10-04T11:19:03.787Z,352.00
2022-10-04T11:20:03.767Z,352.00
2022-10-04T11:21:03.750Z,336.00
2022-10-04T11:22:03.730Z,328.00
2022-10-04T11:23:03.713Z,340.00
2022-10-04T11:24:03.695Z,336.00
2022-10-04T11:25:03.676Z,364.00
2022-10-04T11:26:03.656Z,364.00
2022-10-04T11:27:03.639Z,372.00
2022-10-04T11:28:03.652Z,332.00
2022-10-04T11:29:03.626Z,340.00
2022-10-04T11:30:03.582Z,332.00
2022-10-04T11:31:03.667Z,332.00
2022-10-04T11:32:03.544Z,324.00
2022-10-04T11:33:03.528Z,328.00
2022-10-04T11:34:03.508Z,328.00
2022-10-04T11:35:03.488Z,324.00
2022-10-04T11:36:03.476Z,312.00
2022-10-04T11:37:03.456Z,308.00
2022-10-04T11:38:03.432Z,304.00
2022-10-04T11:39:03.412Z,300.00
2022-10-04T11:41:03.386Z,300.00
2022-10-04T11:42:03.364Z,308.00
2022-10-04T11:43:03.335Z,312.00
2022-10-04T11:44:03.318Z,308.00
2022-10-04T11:45:03.317Z,308.00
2022-10-04T11:46:05.301Z,312.00
2022-10-04T11:47:03.396Z,308.00
2022-10-04T11:48:03.242Z,308.00
2022-10-04T11:49:03.220Z,304.00
2022-10-04T11:50:03.203Z,300.00
2022-10-04T11:51:03.204Z,304.00
2022-10-04T11:52:03.169Z,308.00
2022-10-04T11:53:03.168Z,308.00
2022-10-04T11:54:03.130Z,312.00
2022-10-04T11:55:03.115Z,312.00
2022-10-04T11:56:03.090Z,304.00
2022-10-04T11:57:03.069Z,304.00
2022-10-04T11:58:03.052Z,300.00
2022-10-04T11:59:03.029Z,304.00
2022-10-04T12:00:03.015Z,312.00
2022-10-04T12:01:03.105Z,308.00
2022-10-04T12:02:02.975Z,312.00
2022-10-04T12:03:03.037Z,304.00
2022-10-04T12:04:03.032Z,300.00
2022-10-04T12:05:02.917Z,296.00
2022-10-04T12:06:02.903Z,304.00
2022-10-04T12:07:02.881Z,308.00
2022-10-04T12:08:02.860Z,316.00
2022-10-04T12:09:02.840Z,324.00
2022-10-04T12:10:02.823Z,324.00
2022-10-04T12:11:02.803Z,316.00
2022-10-04T12:12:02.786Z,312.00
2022-10-04T12:13:02.776Z,312.00
2022-10-04T12:14:02.750Z,316.00
2022-10-04T12:15:02.726Z,316.00
2022-10-04T12:16:02.750Z,320.00
2022-10-04T12:17:02.706Z,312.00
2022-10-04T12:18:02.672Z,304.00
2022-10-04T12:19:02.660Z,308.00
2022-10-04T12:20:02.632Z,304.00
2022-10-04T12:21:02.613Z,308.00
2022-10-04T12:22:02.597Z,312.00
2022-10-04T12:23:02.574Z,316.00
2022-10-04T12:24:02.554Z,312.00
2022-10-04T12:25:02.545Z,316.00
2022-10-04T12:26:02.520Z,316.00
2022-10-04T12:27:02.498Z,320.00
2022-10-04T12:28:02.530Z,320.00
2022-10-04T12:29:02.461Z,316.00
2022-10-04T12:30:02.450Z,316.00
2022-10-04T12:31:02.421Z,316.00
2022-10-04T12:32:02.452Z,312.00
2022-10-04T12:33:02.405Z,312.00
2022-10-04T12:34:02.369Z,316.00
2022-10-04T12:35:02.356Z,316.00
2022-10-04T12:36:02.326Z,312.00
2022-10-04T12:37:02.307Z,312.00
2022-10-04T12:38:02.291Z,312.00
2022-10-04T12:39:02.267Z,316.00
2022-10-04T12:40:02.251Z,320.00
2022-10-04T12:41:02.231Z,320.00
2022-10-04T12:42:02.215Z,324.00
2022-10-04T12:43:02.194Z,320.00
2022-10-04T12:44:02.180Z,328.00
2022-10-04T12:45:02.154Z,324.00
2022-10-04T12:46:02.166Z,324.00
2022-10-04T12:47:02.117Z,332.00
2022-10-04T12:48:02.100Z,336.00
2022-10-04T12:49:02.106Z,336.00